Time;durP1;ratioP1;P1;durP2;ratioP2;P2;SDS_P1;SDS_P2;PMS_P1;PMS_P2;Temp;Humidity;BMP_temperature;BMP_pressure;BME280_temperature;BME280_humidity;BME280_pressure;Samples;Min_cycle;Max_cycle;Signal;HPM_P1;HPM_P2
2023/07/20 00:02:05;;;;;;;;;;;;;;;;;;4898659;29;20403;-81
2023/07/20 00:04:37;;;;;;;;;;;;;;;;;;4913415;29;19928;-79
2023/07/20 00:07:05;;;;;;;;;;;;;;;;;;4913725;29;19935;-82
2023/07/20 00:09:37;;;;;;;;;;;;;;;;;;4898349;29;19934;-82
2023/07/20 00:12:10;;;;;;;;;;;;;;;;;;4913081;29;19934;-82
2023/07/20 00:14:42;;;;;;;;;;;;;;;;;;4914934;29;19927;-82
2023/07/20 00:17:15;;;;;;;;;;;;;;;;;;4915672;29;20308;-83
2023/07/20 00:19:42;;;;;;;;;;;;;;;;;;4907131;29;19927;-83
2023/07/20 00:22:10;;;;;;;;;;;;;;;;;;4916300;29;20302;-82
2023/07/20 00:24:38;;;;;;;;;;;;;;;;;;4908175;29;19927;-81
2023/07/20 00:27:05;;;;;;;;;;;;;;;;;;4916521;29;19931;-83
2023/07/20 00:29:33;;;;;;;;;;;;;;;;;;4913313;29;19934;-81
2023/07/20 00:32:00;;;;;;;;;;;;;;;;;;4915545;29;19927;-82
2023/07/20 00:34:29;;;;;;;;;;;;;;;;;;4914557;29;19931;-82
2023/07/20 00:36:57;;;;;;;;;;;;;;;;;;4913390;29;19935;-82
2023/07/20 00:39:24;;;;;;;;;;;;;;;;;;4907132;29;19931;-82
2023/07/20 00:41:52;;;;;;;;;;;;;;;;;;4900382;29;19931;-83
2023/07/20 00:44:19;;;;;;;;;;;;;;;;;;4897084;29;20308;-83
2023/07/20 00:46:47;;;;;;;;;;;;;;;;;;4913378;29;19938;-82
2023/07/20 00:49:15;;;;;;;;;;;;;;;;;;4915396;29;20380;-81
2023/07/20 00:51:48;;;;;;;;;;;;;;;;;;4906690;29;20284;-83
2023/07/20 00:54:16;;;;;;;;;;;;;;;;;;4914220;29;19931;-82
2023/07/20 00:56:48;;;;;;;;;;;;;;;;;;4913090;29;19928;-83
2023/07/20 00:59:16;;;;;;;;;;;;;;;;;;4913500;29;20303;-81
2023/07/20 01:01:43;;;;;;;;;;;;;;;;;;4899754;29;19927;-81
2023/07/20 01:04:11;;;;;;;;;;;;;;;;;;4913687;29;20303;-83
2023/07/20 01:06:38;;;;;;;;;;;;;;;;;;4915345;29;20257;-83
2023/07/20 01:09:06;;;;;;;;;;;;;;;;;;4897461;29;19934;-82
2023/07/20 01:11:39;;;;;;;;;;;;;;;;;;4913704;29;19927;-83
2023/07/20 01:14:06;;;;;;;;;;;;;;;;;;4914534;29;19927;-82
2023/07/20 01:16:39;;;;;;;;;;;;;;;;;;4912954;29;20257;-82
2023/07/20 01:19:06;;;;;;;;;;;;;;;;;;4912968;29;19927;-82
2023/07/20 01:21:34;;;;;;;;;;;;;;;;;;4914850;29;20276;-80
2023/07/20 01:24:02;;;;;;;;;;;;;;;;;;4912942;29;19931;-82
2023/07/20 01:26:30;;;;;;;;;;;;;;;;;;4897509;29;19931;-82
2023/07/20 01:28:59;;;;;;;;;;;;;;;;;;4914144;29;19927;-82
2023/07/20 01:31:27;;;;;;;;;;;;;;;;;;4895380;29;20387;-82
2023/07/20 01:33:55;;;;;;;;;;;;;;;;;;4912840;29;19931;-81
2023/07/20 01:36:28;;;;;;;;;;;;;;;;;;4914857;29;19934;-83
2023/07/20 01:38:55;;;;;;;;;;;;;;;;;;4904804;29;19938;-82
2023/07/20 01:41:28;;;;;;;;;;;;;;;;;;4897396;29;19927;-83
2023/07/20 01:44:01;;;;;;;;;;;;;;;;;;4913244;29;19931;-82
2023/07/20 01:46:28;;;;;;;;;;;;;;;;;;4914246;29;19934;-81
2023/07/20 01:48:56;;;;;;;;;;;;;;;;;;4913393;29;19927;-83
2023/07/20 01:51:24;;;;;;;;;;;;;;;;;;4915317;29;19942;-80
2023/07/20 01:53:56;;;;;;;;;;;;;;;;;;4912746;29;19927;-82
2023/07/20 01:56:29;;;;;;;;;;;;;;;;;;4897448;29;19938;-82
2023/07/20 01:58:56;;;;;;;;;;;;;;;;;;4897111;29;19927;-82
2023/07/20 02:01:24;;;;;;;;;;;;;;;;;;4906825;29;20383;-81
2023/07/20 02:03:51;;;;;;;;;;;;;;;;;;4911997;29;19928;-81
2023/07/20 02:06:19;;;;;;;;;;;;;;;;;;4896852;29;19934;-82
2023/07/20 02:08:51;;;;;;;;;;;;;;;;;;4896896;29;19934;-82
2023/07/20 02:11:19;;;;;;;;;;;;;;;;;;4914685;29;19935;-82
2023/07/20 02:13:46;;;;;;;;;;;;;;;;;;4913905;29;20264;-82
2023/07/20 02:16:14;;;;;;;;;;;;;;;;;;4912574;29;19931;-81
2023/07/20 02:18:47;;;;;;;;;;;;;;;;;;4914021;29;19927;-82
2023/07/20 02:21:15;;;;;;;;;;;;;;;;;;4895889;29;19938;-82
2023/07/20 02:23:47;;;;;;;;;;;;;;;;;;4896142;29;19931;-82
2023/07/20 02:26:15;;;;;;;;;;;;;;;;;;4912933;29;19931;-82
2023/07/20 02:28:42;;;;;;;;;;;;;;;;;;4902217;29;20026;-81
2023/07/20 02:31:11;;;;;;;;;;;;;;;;;;4911869;29;19927;-82
2023/07/20 02:33:44;;;;;;;;;;;;;;;;;;4913793;29;20402;-82
2023/07/20 02:36:11;;;;;;;;;;;;;;;;;;4911832;29;20300;-82
2023/07/20 02:38:39;;;;;;;;;;;;;;;;;;4913053;29;19934;-82
2023/07/20 02:41:06;;;;;;;;;;;;;;;;;;4913433;29;19935;-82
2023/07/20 02:43:39;;;;;;;;;;;;;;;;;;4896905;29;20789;-81
2023/07/20 02:46:07;;;;;;;;;;;;;;;;;;4911905;29;19927;-84
2023/07/20 02:48:39;;;;;;;;;;;;;;;;;;4911012;29;19927;-81
2023/07/20 02:51:12;;;;;;;;;;;;;;;;;;4896247;29;19927;-82
2023/07/20 02:53:39;;;;;;;;;;;;;;;;;;4913582;29;19932;-81
2023/07/20 02:56:07;;;;;;;;;;;;;;;;;;4896695;29;19950;-81
2023/07/20 02:58:36;;;;;;;;;;;;;;;;;;4905092;29;19927;-83
2023/07/20 03:01:09;;;;;;;;;;;;;;;;;;4892494;29;19927;-82
2023/07/20 03:03:46;;;;;;;;;;;;;;;;;;4914223;29;19927;-82
2023/07/20 03:06:14;;;;;;;;;;;;;;;;;;4917320;29;19928;-83
2023/07/20 03:08:48;;;;;;;;;;;;;;;;;;4916571;29;19927;-83
2023/07/20 03:11:20;;;;;;;;;;;;;;;;;;4899260;29;19931;-82
2023/07/20 03:13:53;;;;;;;;;;;;;;;;;;4897944;29;19931;-82
2023/07/20 03:16:21;;;;;;;;;;;;;;;;;;4900526;29;19962;-83
2023/07/20 03:18:48;;;;;;;;;;;;;;;;;;4914395;29;19931;-82
2023/07/20 03:21:16;;;;;;;;;;;;;;;;;;4907518;29;19930;-82
2023/07/20 03:23:44;;;;;;;;;;;;;;;;;;4915658;29;19938;-83
2023/07/20 03:26:11;;;;;;;;;;;;;;;;;;4915429;29;19931;-82
2023/07/20 03:28:44;;;;;;;;;;;;;;;;;;4916989;29;19947;-83
2023/07/20 03:31:11;;;;;;;;;;;;;;;;;;4915634;29;19931;-81
2023/07/20 03:33:40;;;;;;;;;;;;;;;;;;4899406;29;19938;-82
2023/07/20 03:36:09;;;;;;;;;;;;;;;;;;4916402;29;19927;-83
2023/07/20 03:38:37;;;;;;;;;;;;;;;;;;4909099;29;19927;-81
2023/07/20 03:41:05;;;;;;;;;;;;;;;;;;4915541;29;19927;-82
2023/07/20 03:43:37;;;;;;;;;;;;;;;;;;4909191;29;19927;-82
2023/07/20 03:46:10;;;;;;;;;;;;;;;;;;4899913;29;20287;-83
2023/07/20 03:48:39;;;;;;;;;;;;;;;;;;4916341;29;19927;-83
2023/07/20 03:51:06;;;;;;;;;;;;;;;;;;4917284;29;19931;-82
2023/07/20 03:53:39;;;;;;;;;;;;;;;;;;4917096;29;19927;-84
2023/07/20 03:56:06;;;;;;;;;;;;;;;;;;4893617;29;19938;-82
2023/07/20 03:58:39;;;;;;;;;;;;;;;;;;4913809;29;19931;-83
2023/07/20 04:01:13;;;;;;;;;;;;;;;;;;4913789;29;20480;-82
2023/07/20 04:03:42;;;;;;;;;;;;;;;;;;4894258;29;19938;-82
2023/07/20 04:06:10;;;;;;;;;;;;;;;;;;4916025;29;19934;-82
2023/07/20 04:08:42;;;;;;;;;;;;;;;;;;4914288;29;19931;-83
2023/07/20 04:11:10;;;;;;;;;;;;;;;;;;4898290;29;19927;-83
2023/07/20 04:13:37;;;;;;;;;;;;;;;;;;4916007;29;19931;-82
2023/07/20 04:16:05;;;;;;;;;;;;;;;;;;4907395;29;19928;-83
2023/07/20 04:18:37;;;;;;;;;;;;;;;;;;4898377;29;19934;-83
2023/07/20 04:21:10;;;;;;;;;;;;;;;;;;4914194;29;19938;-83
2023/07/20 04:23:37;;;;;;;;;;;;;;;;;;4914037;29;19927;-82
2023/07/20 04:26:12;;;;;;;;;;;;;;;;;;4914904;29;19938;-83
2023/07/20 04:28:42;;;;;;;;;;;;;;;;;;4906335;29;19931;-83
2023/07/20 04:31:22;;;;;;;;;;;;;;;;;;4915405;29;20078;-83
2023/07/20 04:33:50;;;;;;;;;;;;;;;;;;4899289;29;20592;-82
2023/07/20 04:36:19;;;;;;;;;;;;;;;;;;4913299;29;19927;-82
2023/07/20 04:38:46;;;;;;;;;;;;;;;;;;4915883;29;20276;-83
2023/07/20 04:41:20;;;;;;;;;;;;;;;;;;4914243;29;20296;-80
2023/07/20 04:43:50;;;;;;;;;;;;;;;;;;4898728;29;20812;-82
2023/07/20 04:46:26;;;;;;;;;;;;;;;;;;4912801;29;19931;-82
2023/07/20 04:48:53;;;;;;;;;;;;;;;;;;4911545;29;20372;-81
2023/07/20 04:51:22;;;;;;;;;;;;;;;;;;4898030;29;20303;-82
2023/07/20 04:53:53;;;;;;;;;;;;;;;;;;4905477;29;19927;-84
2023/07/20 04:56:23;;;;;;;;;;;;;;;;;;4897534;29;20296;-83
2023/07/20 04:58:57;;;;;;;;;;;;;;;;;;4915546;29;19931;-83
2023/07/20 05:01:29;;;;;;;;;;;;;;;;;;4894570;29;19934;-83
2023/07/20 05:03:57;;;;;;;;;;;;;;;;;;4911756;29;19931;-83
2023/07/20 05:06:25;;;;;;;;;;;;;;;;;;4897249;29;20415;-82
2023/07/20 05:08:53;;;;;;;;;;;;;;;;;;4913420;29;19934;-83
2023/07/20 05:11:20;;;;;;;;;;;;;;;;;;4901493;29;20383;-82
2023/07/20 05:13:53;;;;;;;;;;;;;;;;;;4914184;29;19973;-82
2023/07/20 05:16:26;;;;;;;;;;;;;;;;;;4898450;29;19938;-83
2023/07/20 05:18:56;;;;;;;;;;;;;;;;;;4905015;29;19946;-82
2023/07/20 05:21:23;;;;;;;;;;;;;;;;;;4914471;29;19927;-83
2023/07/20 05:23:56;;;;;;;;;;;;;;;;;;4915545;29;19938;-83
2023/07/20 05:26:23;;;;;;;;;;;;;;;;;;4912741;29;19938;-83
2023/07/20 05:28:51;;;;;;;;;;;;;;;;;;4914498;29;19938;-81
2023/07/20 05:31:19;;;;;;;;;;;;;;;;;;4914792;29;19934;-82
2023/07/20 05:33:46;;;;;;;;;;;;;;;;;;4913489;29;19942;-81
2023/07/20 05:36:26;;;;;;;;;;;;;;;;;;4914134;29;20299;-82
2023/07/20 05:38:53;;;;;;;;;;;;;;;;;;4892225;29;19928;-82
2023/07/20 05:41:22;;;;;;;;;;;;;;;;;;4914447;29;19927;-84
2023/07/20 05:43:49;;;;;;;;;;;;;;;;;;4915475;29;19927;-82
2023/07/20 05:46:17;;;;;;;;;;;;;;;;;;4915010;29;20299;-79
2023/07/20 05:48:50;;;;;;;;;;;;;;;;;;4907000;29;20376;-81
2023/07/20 05:51:22;;;;;;;;;;;;;;;;;;4897742;29;19931;-82
2023/07/20 05:53:55;;;;;;;;;;;;;;;;;;4914137;29;19927;-81
2023/07/20 05:56:23;;;;;;;;;;;;;;;;;;4914374;29;20296;-82
2023/07/20 05:58:57;;;;;;;;;;;;;;;;;;4915240;29;19934;-84
2023/07/20 06:01:27;;;;;;;;;;;;;;;;;;4912248;29;19927;-82
2023/07/20 06:03:59;;;;;;;;;;;;;;;;;;4912848;29;19927;-81
2023/07/20 06:06:32;;;;;;;;;;;;;;;;;;4912898;29;19931;-82
2023/07/20 06:09:07;;;;;;;;;;;;;;;;;;4897474;29;19938;-80
2023/07/20 06:11:34;;;;;;;;;;;;;;;;;;4914386;29;19931;-80
2023/07/20 06:14:07;;;;;;;;;;;;;;;;;;4914017;29;19935;-83
2023/07/20 06:16:40;;;;;;;;;;;;;;;;;;4896617;29;19935;-81
2023/07/20 06:19:13;;;;;;;;;;;;;;;;;;4911187;29;19931;-80
2023/07/20 06:21:40;;;;;;;;;;;;;;;;;;4911436;29;19935;-80
2023/07/20 06:24:08;;;;;;;;;;;;;;;;;;4910414;29;19927;-82
2023/07/20 06:26:40;;;;;;;;;;;;;;;;;;4910688;29;19938;-82
2023/07/20 06:29:08;;;;;;;;;;;;;;;;;;4898280;29;19934;-81
2023/07/20 06:31:41;;;;;;;;;;;;;;;;;;4897092;29;20447;-80
2023/07/20 06:34:13;;;;;;;;;;;;;;;;;;4912038;29;20296;-79
2023/07/20 06:36:41;;;;;;;;;;;;;;;;;;4912554;29;19942;-80
2023/07/20 06:39:14;;;;;;;;;;;;;;;;;;4913673;29;19927;-80
2023/07/20 06:41:46;;;;;;;;;;;;;;;;;;4920405;29;19934;-80
2023/07/20 06:44:19;;;;;;;;;;;;;;;;;;4922657;29;20369;-80
2023/07/20 06:46:52;;;;;;;;;;;;;;;;;;4918734;29;19935;-79
2023/07/20 06:49:19;;;;;;;;;;;;;;;;;;4899467;29;19927;-78
2023/07/20 06:51:47;;;;;;;;;;;;;;;;;;4914282;29;19931;-80
2023/07/20 06:54:19;;;;;;;;;;;;;;;;;;4902124;29;19932;-79
2023/07/20 06:56:52;;;;;;;;;;;;;;;;;;4916856;29;20392;-79
2023/07/20 06:59:25;;;;;;;;;;;;;;;;;;4913404;29;19931;-78
2023/07/20 07:01:57;;;;;;;;;;;;;;;;;;4917119;29;19942;-79
2023/07/20 07:04:27;;;;;;;;;;;;;;;;;;4918351;29;19927;-79
2023/07/20 07:06:54;;;;;;;;;;;;;;;;;;4917314;29;19934;-78
2023/07/20 07:09:22;;;;;;;;;;;;;;;;;;4917114;29;19927;-79
2023/07/20 07:11:54;;;;;;;;;;;;;;;;;;4918866;29;20291;-79
2023/07/20 07:14:27;;;;;;;;;;;;;;;;;;4917258;29;19937;-78
2023/07/20 07:16:59;;;;;;;;;;;;;;;;;;4916389;29;19934;-79
2023/07/20 07:19:32;;;;;;;;;;;;;;;;;;4917375;29;19927;-78
2023/07/20 07:21:59;;;;;;;;;;;;;;;;;;4917144;29;19934;-79
2023/07/20 07:24:33;;;;;;;;;;;;;;;;;;4914546;29;20599;-79
2023/07/20 07:27:01;;;;;;;;;;;;;;;;;;4918172;29;19934;-77
2023/07/20 07:29:33;;;;;;;;;;;;;;;;;;4915331;29;19935;-77
2023/07/20 07:32:06;;;;;;;;;;;;;;;;;;4916941;29;19928;-79
2023/07/20 07:34:34;;;;;;;;;;;;;;;;;;4914682;29;19934;-78
2023/07/20 07:37:01;;;;;;;;;;;;;;;;;;4919625;29;19931;-77
2023/07/20 07:39:34;;;;;;;;;;;;;;;;;;4918250;29;19950;-80
2023/07/20 07:42:07;;;;;;;;;;;;;;;;;;4916414;29;19938;-80
2023/07/20 07:44:34;;;;;;;;;;;;;;;;;;4899130;29;20281;-80
2023/07/20 07:47:02;;;;;;;;;;;;;;;;;;4912911;29;20295;-79
2023/07/20 07:49:34;;;;;;;;;;;;;;;;;;4897141;29;19927;-80
2023/07/20 07:52:02;;;;;;;;;;;;;;;;;;4912363;29;19931;-79
2023/07/20 07:54:30;;;;;;;;;;;;;;;;;;4914765;29;19927;-77
2023/07/20 07:56:58;;;;;;;;;;;;;;;;;;4913822;29;19931;-80
2023/07/20 07:59:25;;;;;;;;;;;;;;;;;;4894474;29;20316;-80
2023/07/20 08:01:58;;;;;;;;;;;;;;;;;;4896439;29;19935;-80
2023/07/20 08:04:31;;;;;;;;;;;;;;;;;;4912877;29;19928;-80
2023/07/20 08:07:03;;;;;;;;;;;;;;;;;;4909554;29;20374;-79
2023/07/20 08:09:36;;;;;;;;;;;;;;;;;;4913160;29;19927;-79
2023/07/20 08:12:09;;;;;;;;;;;;;;;;;;4914079;29;19931;-79
2023/07/20 08:14:36;;;;;;;;;;;;;;;;;;4912574;29;19938;-79
2023/07/20 08:17:04;;;;;;;;;;;;;;;;;;4912072;29;20347;-79
2023/07/20 08:19:31;;;;;;;;;;;;;;;;;;4912158;29;19927;-80
2023/07/20 08:22:04;;;;;;;;;;;;;;;;;;4913992;29;19934;-80
2023/07/20 08:24:32;;;;;;;;;;;;;;;;;;4893450;29;19966;-79
2023/07/20 08:26:59;;;;;;;;;;;;;;;;;;4910996;29;19931;-78
2023/07/20 08:29:27;;;;;;;;;;;;;;;;;;4910477;29;19927;-80
2023/07/20 08:31:59;;;;;;;;;;;;;;;;;;4913721;29;19927;-80
2023/07/20 08:34:27;;;;;;;;;;;;;;;;;;4908426;29;19927;-79
2023/07/20 08:37:00;;;;;;;;;;;;;;;;;;4913234;29;20419;-78
2023/07/20 08:39:27;;;;;;;;;;;;;;;;;;4913721;29;19934;-80
2023/07/20 08:41:55;;;;;;;;;;;;;;;;;;4912624;29;19935;-81
2023/07/20 08:44:28;;;;;;;;;;;;;;;;;;4914071;29;19931;-79
2023/07/20 08:47:02;;;;;;;;;;;;;;;;;;4914859;29;19950;-79
2023/07/20 08:49:29;;;;;;;;;;;;;;;;;;4911567;29;19934;-79
2023/07/20 08:52:02;;;;;;;;;;;;;;;;;;4907799;29;19927;-77
2023/07/20 08:54:32;;;;;;;;;;;;;;;;;;4912888;29;19927;-79
2023/07/20 08:57:00;;;;;;;;;;;;;;;;;;4888748;29;19927;-79
2023/07/20 08:59:28;;;;;;;;;;;;;;;;;;4909672;29;19930;-79
2023/07/20 09:01:56;;;;;;;;;;;;;;;;;;4909850;29;20350;-80
2023/07/20 09:04:23;;;;;;;;;;;;;;;;;;4912953;29;19931;-78
2023/07/20 09:06:56;;;;;;;;;;;;;;;;;;4912796;29;19931;-79
2023/07/20 09:09:29;;;;;;;;;;;;;;;;;;4910663;29;19942;-80
2023/07/20 09:11:56;;;;;;;;;;;;;;;;;;4911415;29;19934;-78
2023/07/20 09:14:31;;;;;;;;;;;;;;;;;;4909269;29;20214;-78
2023/07/20 09:16:58;;;;;;;;;;;;;;;;;;4911544;29;19935;-78
2023/07/20 09:19:26;;;;;;;;;;;;;;;;;;4907871;29;19934;-78
2023/07/20 09:21:54;;;;;;;;;;;;;;;;;;4913296;29;19935;-78
2023/07/20 09:24:26;;;;;;;;;;;;;;;;;;4910179;29;19927;-80
2023/07/20 09:26:54;;;;;;;;;;;;;;;;;;4910489;29;19931;-78
2023/07/20 09:29:27;;;;;;;;;;;;;;;;;;4891525;29;19927;-79
2023/07/20 09:31:54;;;;;;;;;;;;;;;;;;4909213;29;19937;-77
2023/07/20 09:34:27;;;;;;;;;;;;;;;;;;4892305;29;20565;-77
2023/07/20 09:37:00;;;;;;;;;;;;;;;;;;4905317;29;19935;-78
2023/07/20 09:39:27;;;;;;;;;;;;;;;;;;4893223;29;20421;-80
2023/07/20 09:41:55;;;;;;;;;;;;;;;;;;4906306;29;19957;-80
2023/07/20 09:44:22;;;;;;;;;;;;;;;;;;4911827;29;19931;-80
2023/07/20 09:46:55;;;;;;;;;;;;;;;;;;4912746;29;19959;-80
2023/07/20 09:49:29;;;;;;;;;;;;;;;;;;4892878;29;20458;-77
2023/07/20 09:51:57;;;;;;;;;;;;;;;;;;4909975;29;20403;-78
2023/07/20 09:54:24;;;;;;;;;;;;;;;;;;4910111;29;20475;-79
2023/07/20 09:56:52;;;;;;;;;;;;;;;;;;4908933;29;19931;-78
2023/07/20 09:59:20;;;;;;;;;;;;;;;;;;4909061;29;19953;-79
2023/07/20 10:01:47;;;;;;;;;;;;;;;;;;4893793;29;19934;-79
2023/07/20 10:04:15;;;;;;;;;;;;;;;;;;4909085;29;19950;-79
2023/07/20 10:06:42;;;;;;;;;;;;;;;;;;4911523;29;19927;-78
2023/07/20 10:09:15;;;;;;;;;;;;;;;;;;4910025;29;19934;-80
2023/07/20 10:11:42;;;;;;;;;;;;;;;;;;4910205;29;19930;-78
2023/07/20 10:14:12;;;;;;;;;;;;;;;;;;4912926;29;19934;-79
2023/07/20 10:16:39;;;;;;;;;;;;;;;;;;4911898;29;20411;-78
2023/07/20 10:19:07;;;;;;;;;;;;;;;;;;4911485;29;19931;-78
2023/07/20 10:21:39;;;;;;;;;;;;;;;;;;4911733;29;19931;-78
2023/07/20 10:24:07;;;;;;;;;;;;;;;;;;4910592;29;19951;-79
2023/07/20 10:26:40;;;;;;;;;;;;;;;;;;4913726;29;19935;-78
2023/07/20 10:29:08;;;;;;;;;;;;;;;;;;4912152;29;19931;-79
2023/07/20 10:31:40;;;;;;;;;;;;;;;;;;4911997;29;19938;-78
2023/07/20 10:34:13;;;;;;;;;;;;;;;;;;4909783;29;19927;-80
2023/07/20 10:36:41;;;;;;;;;;;;;;;;;;4910781;29;19938;-82
2023/07/20 10:39:08;;;;;;;;;;;;;;;;;;4913811;29;19954;-79
2023/07/20 10:41:36;;;;;;;;;;;;;;;;;;4910364;29;19928;-81
2023/07/20 10:44:03;;;;;;;;;;;;;;;;;;4912416;29;20272;-80
2023/07/20 10:46:36;;;;;;;;;;;;;;;;;;4913660;29;19934;-80
2023/07/20 10:49:04;;;;;;;;;;;;;;;;;;4912586;29;20372;-80
2023/07/20 10:51:31;;;;;;;;;;;;;;;;;;4911457;29;19935;-81
2023/07/20 10:53:59;;;;;;;;;;;;;;;;;;4912621;29;20685;-79
2023/07/20 10:56:26;;;;;;;;;;;;;;;;;;4893525;29;19933;-81
2023/07/20 10:58:54;;;;;;;;;;;;;;;;;;4910216;29;19938;-81
2023/07/20 11:01:26;;;;;;;;;;;;;;;;;;4913542;29;19927;-79
2023/07/20 11:03:54;;;;;;;;;;;;;;;;;;4912951;29;19931;-80
2023/07/20 11:06:21;;;;;;;;;;;;;;;;;;4911455;29;19934;-79
2023/07/20 11:08:49;;;;;;;;;;;;;;;;;;4912968;29;19927;-78
2023/07/20 11:11:18;;;;;;;;;;;;;;;;;;4913175;29;19943;-83
2023/07/20 11:13:47;;;;;;;;;;;;;;;;;;4911367;29;19938;-81
2023/07/20 11:16:14;;;;;;;;;;;;;;;;;;4903150;29;19931;-79
2023/07/20 11:18:47;;;;;;;;;;;;;;;;;;4910939;29;19927;-81
2023/07/20 11:21:14;;;;;;;;;;;;;;;;;;4912795;29;19931;-80
2023/07/20 11:23:42;;;;;;;;;;;;;;;;;;4913951;29;19932;-80
2023/07/20 11:26:11;;;;;;;;;;;;;;;;;;4913014;29;20419;-80
2023/07/20 11:28:39;;;;;;;;;;;;;;;;;;4912221;29;19938;-80
2023/07/20 11:31:06;;;;;;;;;;;;;;;;;;4913554;29;19931;-81
2023/07/20 11:33:39;;;;;;;;;;;;;;;;;;4912926;29;20056;-79
2023/07/20 11:36:12;;;;;;;;;;;;;;;;;;4914041;29;19942;-81
2023/07/20 11:38:39;;;;;;;;;;;;;;;;;;4914783;29;19927;-79
2023/07/20 11:41:07;;;;;;;;;;;;;;;;;;4894323;29;19934;-80
2023/07/20 11:43:37;;;;;;;;;;;;;;;;;;4912955;29;19946;-82
2023/07/20 11:46:10;;;;;;;;;;;;;;;;;;4911558;29;19938;-78
2023/07/20 11:48:37;;;;;;;;;;;;;;;;;;4913731;29;19931;-83
2023/07/20 11:51:05;;;;;;;;;;;;;;;;;;4913138;29;20296;-80
2023/07/20 11:53:32;;;;;;;;;;;;;;;;;;4912802;29;19931;-79
2023/07/20 11:56:05;;;;;;;;;;;;;;;;;;4912178;29;19931;-81
2023/07/20 11:58:38;;;;;;;;;;;;;;;;;;4910860;29;19934;-80
2023/07/20 12:01:05;;;;;;;;;;;;;;;;;;4879830;29;19935;-78
2023/07/20 12:03:38;;;;;;;;;;;;;;;;;;4887925;29;19934;-79
2023/07/20 12:06:10;;;;;;;;;;;;;;;;;;4897843;29;19935;-80
2023/07/20 12:08:44;;;;;;;;;;;;;;;;;;4886253;29;20287;-78
2023/07/20 12:11:11;;;;;;;;;;;;;;;;;;4886457;29;19942;-80
2023/07/20 12:13:44;;;;;;;;;;;;;;;;;;4873754;29;19942;-80
2023/07/20 12:16:12;;;;;;;;;;;;;;;;;;4880045;29;20311;-79
2023/07/20 12:18:40;;;;;;;;;;;;;;;;;;4886785;29;19935;-79
2023/07/20 12:21:12;;;;;;;;;;;;;;;;;;4883476;29;20867;-82
2023/07/20 12:23:40;;;;;;;;;;;;;;;;;;4887421;29;19942;-78
2023/07/20 12:26:12;;;;;;;;;;;;;;;;;;4880321;29;19947;-80
2023/07/20 12:28:45;;;;;;;;;;;;;;;;;;4881281;29;19942;-79
2023/07/20 12:31:18;;;;;;;;;;;;;;;;;;4890545;29;19942;-81
2023/07/20 12:33:50;;;;;;;;;;;;;;;;;;4882006;29;19938;-78
2023/07/20 12:36:23;;;;;;;;;;;;;;;;;;4883414;29;19935;-80
2023/07/20 12:38:50;;;;;;;;;;;;;;;;;;4879936;29;19935;-79
2023/07/20 12:41:23;;;;;;;;;;;;;;;;;;4868587;29;19935;-78
2023/07/20 12:43:50;;;;;;;;;;;;;;;;;;4885818;29;20281;-78
2023/07/20 12:46:23;;;;;;;;;;;;;;;;;;4881895;29;19935;-77
2023/07/20 12:48:50;;;;;;;;;;;;;;;;;;4881540;29;21276;-78
2023/07/20 12:51:23;;;;;;;;;;;;;;;;;;4886864;29;19935;-79
2023/07/20 12:53:56;;;;;;;;;;;;;;;;;;4871857;29;19939;-78
2023/07/20 12:56:23;;;;;;;;;;;;;;;;;;4886271;29;19935;-80
2023/07/20 12:58:51;;;;;;;;;;;;;;;;;;4876292;29;19938;-77
2023/07/20 13:01:24;;;;;;;;;;;;;;;;;;4883398;29;19935;-79
2023/07/20 13:03:51;;;;;;;;;;;;;;;;;;4870258;29;19936;-79
2023/07/20 13:06:19;;;;;;;;;;;;;;;;;;4884999;29;19935;-78
2023/07/20 13:08:46;;;;;;;;;;;;;;;;;;4882074;29;20224;-78
2023/07/20 13:11:14;;;;;;;;;;;;;;;;;;4887856;29;19934;-77
2023/07/20 13:13:46;;;;;;;;;;;;;;;;;;4874266;29;19935;-78
2023/07/20 13:16:14;;;;;;;;;;;;;;;;;;4875806;29;19935;-80
2023/07/20 13:18:47;;;;;;;;;;;;;;;;;;4882978;29;19935;-79
2023/07/20 13:21:22;;;;;;;;;;;;;;;;;;4885281;29;20146;-80
2023/07/20 13:23:50;;;;;;;;;;;;;;;;;;4881226;29;19935;-78
2023/07/20 13:26:22;;;;;;;;;;;;;;;;;;4890757;29;20304;-79
2023/07/20 13:28:50;;;;;;;;;;;;;;;;;;4887799;29;20008;-77
2023/07/20 13:31:17;;;;;;;;;;;;;;;;;;4879837;29;20083;-78
2023/07/20 13:33:45;;;;;;;;;;;;;;;;;;4880229;29;19935;-78
2023/07/20 13:36:13;;;;;;;;;;;;;;;;;;4883929;29;19935;-79
2023/07/20 13:38:40;;;;;;;;;;;;;;;;;;4885292;29;19935;-80
2023/07/20 13:41:08;;;;;;;;;;;;;;;;;;4886372;29;19942;-78
2023/07/20 13:43:35;;;;;;;;;;;;;;;;;;4888390;29;19935;-78
2023/07/20 13:46:08;;;;;;;;;;;;;;;;;;4882678;29;19935;-80
2023/07/20 13:48:36;;;;;;;;;;;;;;;;;;4877836;29;19934;-79
2023/07/20 13:51:09;;;;;;;;;;;;;;;;;;4890427;29;19927;-81
2023/07/20 13:53:36;;;;;;;;;;;;;;;;;;4885480;29;21175;-78
2023/07/20 13:56:04;;;;;;;;;;;;;;;;;;4887186;29;20387;-78
2023/07/20 13:58:37;;;;;;;;;;;;;;;;;;4872372;29;19942;-79
2023/07/20 14:01:09;;;;;;;;;;;;;;;;;;4884283;29;19935;-79
2023/07/20 14:03:37;;;;;;;;;;;;;;;;;;4884469;29;20408;-79
2023/07/20 14:06:05;;;;;;;;;;;;;;;;;;4892352;29;19927;-79
2023/07/20 14:08:32;;;;;;;;;;;;;;;;;;4872449;29;19935;-79
2023/07/20 14:11:00;;;;;;;;;;;;;;;;;;4883606;29;19935;-81
2023/07/20 14:13:32;;;;;;;;;;;;;;;;;;4876844;29;20307;-80
2023/07/20 14:16:05;;;;;;;;;;;;;;;;;;4881613;29;19935;-79
2023/07/20 14:18:37;;;;;;;;;;;;;;;;;;4880455;29;19935;-79
2023/07/20 14:21:06;;;;;;;;;;;;;;;;;;4868718;29;20539;-78
2023/07/20 14:23:34;;;;;;;;;;;;;;;;;;4879685;29;19935;-80
2023/07/20 14:26:07;;;;;;;;;;;;;;;;;;4881638;29;21371;-79
2023/07/20 14:28:40;;;;;;;;;;;;;;;;;;4893754;29;19935;-80
2023/07/20 14:31:07;;;;;;;;;;;;;;;;;;4885223;29;19935;-80
2023/07/20 14:33:35;;;;;;;;;;;;;;;;;;4887193;29;19935;-79
2023/07/20 14:36:02;;;;;;;;;;;;;;;;;;4885423;29;19935;-80
2023/07/20 14:38:30;;;;;;;;;;;;;;;;;;4887466;29;19935;-81
2023/07/20 14:40:57;;;;;;;;;;;;;;;;;;4886634;29;19931;-79
2023/07/20 14:43:25;;;;;;;;;;;;;;;;;;4888277;29;19943;-80
2023/07/20 14:45:54;;;;;;;;;;;;;;;;;;4885774;29;19935;-80
2023/07/20 14:48:26;;;;;;;;;;;;;;;;;;4882941;29;19943;-83
2023/07/20 14:50:59;;;;;;;;;;;;;;;;;;4880929;29;19935;-79
2023/07/20 14:53:28;;;;;;;;;;;;;;;;;;4864694;29;19935;-79
2023/07/20 14:55:55;;;;;;;;;;;;;;;;;;4868084;29;19935;-81
2023/07/20 14:58:23;;;;;;;;;;;;;;;;;;4889846;29;19935;-80
2023/07/20 15:00:51;;;;;;;;;;;;;;;;;;4887424;29;20267;-80
2023/07/20 15:03:23;;;;;;;;;;;;;;;;;;4883788;29;19934;-79
2023/07/20 15:05:52;;;;;;;;;;;;;;;;;;4867319;29;19931;-81
2023/07/20 15:08:19;;;;;;;;;;;;;;;;;;4889353;29;20679;-79
2023/07/20 15:10:47;;;;;;;;;;;;;;;;;;4889098;29;19935;-79
2023/07/20 15:13:15;;;;;;;;;;;;;;;;;;4875808;29;20770;-80
2023/07/20 15:15:43;;;;;;;;;;;;;;;;;;4890839;29;19938;-81
2023/07/20 15:18:15;;;;;;;;;;;;;;;;;;4890651;29;20519;-81
2023/07/20 15:20:43;;;;;;;;;;;;;;;;;;4883558;29;19927;-80
2023/07/20 15:23:15;;;;;;;;;;;;;;;;;;4889964;29;19935;-81
2023/07/20 15:25:43;;;;;;;;;;;;;;;;;;4890854;29;19935;-82
2023/07/20 15:28:10;;;;;;;;;;;;;;;;;;4876729;29;19946;-81
2023/07/20 15:30:38;;;;;;;;;;;;;;;;;;4896288;29;20642;-81
2023/07/20 15:33:10;;;;;;;;;;;;;;;;;;4887107;29;19934;-81
2023/07/20 15:35:38;;;;;;;;;;;;;;;;;;4887578;29;19935;-80
2023/07/20 15:38:05;;;;;;;;;;;;;;;;;;4891655;29;21233;-81
2023/07/20 15:40:33;;;;;;;;;;;;;;;;;;4887486;29;19935;-79
2023/07/20 15:43:05;;;;;;;;;;;;;;;;;;4887930;29;19942;-79
2023/07/20 15:45:38;;;;;;;;;;;;;;;;;;4886046;29;19935;-80
2023/07/20 15:48:05;;;;;;;;;;;;;;;;;;4889073;29;19936;-81
2023/07/20 15:50:38;;;;;;;;;;;;;;;;;;4883491;29;19935;-81
2023/07/20 15:53:10;;;;;;;;;;;;;;;;;;4890144;29;19935;-78
2023/07/20 15:55:38;;;;;;;;;;;;;;;;;;4892551;29;19938;-81
2023/07/20 15:58:11;;;;;;;;;;;;;;;;;;4879230;29;19935;-81
2023/07/20 16:00:38;;;;;;;;;;;;;;;;;;4890712;29;21649;-80
2023/07/20 16:03:11;;;;;;;;;;;;;;;;;;4885466;29;20396;-77
2023/07/20 16:05:39;;;;;;;;;;;;;;;;;;4892997;29;19935;-78
2023/07/20 16:08:12;;;;;;;;;;;;;;;;;;4882543;29;19935;-81
2023/07/20 16:10:39;;;;;;;;;;;;;;;;;;4893180;29;19935;-79
2023/07/20 16:13:07;;;;;;;;;;;;;;;;;;4872109;29;19943;-80
2023/07/20 16:15:40;;;;;;;;;;;;;;;;;;4884316;29;19951;-80
2023/07/20 16:18:07;;;;;;;;;;;;;;;;;;4882902;29;19942;-80
2023/07/20 16:20:35;;;;;;;;;;;;;;;;;;4887128;29;20469;-79
2023/07/20 16:23:08;;;;;;;;;;;;;;;;;;4872871;29;19930;-78
2023/07/20 16:25:40;;;;;;;;;;;;;;;;;;4889826;29;19935;-80
2023/07/20 16:28:09;;;;;;;;;;;;;;;;;;4881545;29;19935;-80
2023/07/20 16:30:42;;;;;;;;;;;;;;;;;;4875916;29;19942;-78
2023/07/20 16:33:09;;;;;;;;;;;;;;;;;;4886595;29;19931;-80
2023/07/20 16:35:42;;;;;;;;;;;;;;;;;;4891814;29;20501;-79
2023/07/20 16:38:14;;;;;;;;;;;;;;;;;;4886153;29;19935;-81
2023/07/20 16:40:47;;;;;;;;;;;;;;;;;;4883673;29;20522;-78
2023/07/20 16:43:14;;;;;;;;;;;;;;;;;;4882990;29;19943;-81
2023/07/20 16:45:43;;;;;;;;;;;;;;;;;;4874003;29;19942;-79
2023/07/20 16:48:11;;;;;;;;;;;;;;;;;;4886772;29;19943;-79
2023/07/20 16:50:38;;;;;;;;;;;;;;;;;;4886055;29;19942;-80
2023/07/20 16:53:06;;;;;;;;;;;;;;;;;;4884340;29;19931;-80
2023/07/20 16:55:33;;;;;;;;;;;;;;;;;;4884509;29;19931;-80
2023/07/20 16:58:01;;;;;;;;;;;;;;;;;;4892072;29;19955;-80
2023/07/20 17:00:33;;;;;;;;;;;;;;;;;;4896423;29;20296;-79
2023/07/20 17:03:02;;;;;;;;;;;;;;;;;;4890418;29;19938;-82